Time;durP1;ratioP1;P1;durP2;ratioP2;P2;SDS_P1;SDS_P2;PMS_P1;PMS_P2;Temp;Humidity;BMP_temperature;BMP_pressure;BME280_temperature;BME280_humidity;BME280_pressure;Samples;Min_cycle;Max_cycle;Signal;HPM_P1;HPM_P2
2022/12/25 00:02:00;;;;;;;25.40;10.90;;;;;;;8.52;66.58;99955.31;10380949;28;20050;-61
2022/12/25 00:07:02;;;;;;;30.40;10.80;;;;;;;8.39;66.90;99946.41;10381816;28;20057;-62
2022/12/25 00:12:04;;;;;;;30.13;10.45;;;;;;;8.09;67.38;99937.50;10382737;28;20045;-61
2022/12/25 00:17:05;;;;;;;30.75;10.73;;;;;;;8.00;67.58;99944.84;10380141;28;20533;-61
2022/12/25 00:22:07;;;;;;;26.73;10.07;;;;;;;7.93;67.95;99950.44;10382324;28;20552;-62
2022/12/25 00:27:11;;;;;;;33.35;11.13;;;;;;;8.15;68.00;99952.88;10380082;28;20531;-61
2022/12/25 00:32:13;;;;;;;28.10;10.70;;;;;;;8.25;67.72;99954.09;10378109;28;20402;-62
2022/12/25 00:37:15;;;;;;;22.42;9.70;;;;;;;8.25;67.55;99939.31;10383788;28;20046;-62
2022/12/25 00:42:19;;;;;;;28.50;10.32;;;;;;;8.24;67.46;99936.78;10389515;28;20060;-62
2022/12/25 00:47:21;;;;;;;30.88;11.15;;;;;;;8.30;67.51;99936.47;10388888;28;20178;-61
2022/12/25 00:52:23;;;;;;;28.52;11.60;;;;;;;8.34;67.76;99935.41;10388733;28;20045;-62
2022/12/25 00:57:27;;;;;;;29.30;11.23;;;;;;;8.37;67.74;99927.41;10386923;28;20064;-62
2022/12/25 01:02:28;;;;;;;38.67;12.50;;;;;;;8.49;67.64;99932.00;10384899;28;20421;-62
2022/12/25 01:07:30;;;;;;;30.13;11.93;;;;;;;8.26;67.80;99935.78;10383008;28;20057;-62
2022/12/25 01:12:35;;;;;;;25.70;11.73;;;;;;;7.98;68.42;99940.63;10382467;28;20227;-62
2022/12/25 01:17:37;;;;;;;24.95;10.75;;;;;;;7.87;68.87;99948.13;10382975;28;20045;-62
2022/12/25 01:22:42;;;;;;;28.60;11.55;;;;;;;8.12;68.68;99953.03;10382619;28;21165;-62
2022/12/25 01:27:44;;;;;;;23.95;10.93;;;;;;;8.30;68.20;99954.72;10383188;28;20041;-60
2022/12/25 01:32:45;;;;;;;22.48;9.73;;;;;;;8.33;68.06;99949.34;10381810;28;20057;-60
2022/12/25 01:37:47;;;;;;;27.15;11.05;;;;;;;8.40;67.77;99948.13;10382195;28;20049;-60
2022/12/25 01:42:49;;;;;;;23.92;10.25;;;;;;;8.26;68.28;99961.00;10380320;28;20057;-60
2022/12/25 01:47:50;;;;;;;35.05;13.63;;;;;;;8.29;68.18;99955.63;10384095;28;20060;-60
2022/12/25 01:52:53;;;;;;;25.80;11.93;;;;;;;8.33;68.39;99957.16;10382236;28;20050;-60
2022/12/25 01:57:55;;;;;;;31.95;12.32;;;;;;;8.30;68.10;99946.91;10383115;28;20053;-61
2022/12/25 02:02:57;;;;;;;25.17;11.35;;;;;;;8.28;68.45;99956.56;10381286;28;20054;-61
2022/12/25 02:08:06;;;;;;;25.67;11.38;;;;;;;8.17;68.39;99944.06;10384920;28;20225;-61
2022/12/25 02:13:08;;;;;;;28.70;11.48;;;;;;;8.18;68.48;99939.69;10382485;28;20045;-61
2022/12/25 02:18:48;;;;;;;29.17;11.00;;;;;;;7.94;69.11;99934.75;10386418;28;20053;-61
2022/12/25 02:24:16;;;;;;;26.15;12.18;;;;;;;7.82;69.26;99931.88;10384609;28;20053;-62
2022/12/25 02:29:39;;;;;;;27.88;11.75;;;;;;;7.79;69.55;99930.25;10387341;28;20064;-62
2022/12/25 02:34:59;;;;;;;35.03;12.82;;;;;;;7.76;69.78;99921.75;10383430;28;20079;-62
2022/12/25 02:40:04;;;;;;;25.90;12.13;;;;;;;7.91;69.32;99924.50;10382436;28;20358;-62
2022/12/25 03:06:45;;;;;;;30.27;12.75;;;;;;;8.27;68.48;99945.28;10391458;28;20054;-62
2022/12/25 03:11:54;;;;;;;27.20;10.85;;;;;;;8.35;68.26;99948.34;10390230;28;20050;-63
2022/12/25 03:16:58;;;;;;;32.45;13.25;;;;;;;8.43;68.06;99929.72;10391435;28;20037;-63
2022/12/25 03:27:20;;;;;;;27.73;13.45;;;;;;;8.38;68.25;99932.56;10388647;28;20158;-61
2022/12/25 03:32:41;;;;;;;23.42;11.27;;;;;;;8.43;67.99;99930.56;10390704;28;20054;-61
2022/12/25 04:37:00;;;;;;;28.27;12.93;;;;;;;7.92;68.77;99883.66;10391033;28;20054;-62
2022/12/25 04:42:01;;;;;;;30.38;14.13;;;;;;;8.04;68.69;99883.88;10387976;28;20493;-62
2022/12/25 04:47:03;;;;;;;31.10;13.20;;;;;;;8.11;68.52;99881.00;10389803;28;20045;-62
2022/12/25 04:52:11;;;;;;;28.75;12.55;;;;;;;8.13;68.43;99897.38;10389441;28;20046;-61
2022/12/25 04:57:13;;;;;;;26.92;12.05;;;;;;;8.20;68.36;99897.00;10388323;28;20489;-61
2022/12/25 05:02:15;;;;;;;25.90;11.98;;;;;;;8.29;68.34;99898.31;10378462;28;20064;-62
2022/12/25 05:07:16;;;;;;;24.45;10.93;;;;;;;8.31;68.30;99892.09;10388998;28;20060;-62
2022/12/25 05:12:18;;;;;;;35.67;12.88;;;;;;;8.36;68.31;99904.91;10388690;28;20064;-62
2022/12/25 05:17:20;;;;;;;25.95;10.70;;;;;;;8.42;68.17;99901.97;10387627;28;20065;-62
2022/12/25 05:22:22;;;;;;;23.85;9.82;;;;;;;8.41;67.95;99892.47;10387456;28;20386;-62
2022/12/25 05:27:23;;;;;;;26.33;11.30;;;;;;;8.26;68.37;99893.25;10388898;28;20041;-62
2022/12/25 05:32:25;;;;;;;31.05;12.52;;;;;;;8.34;68.32;99893.72;10387911;28;20054;-62
2022/12/25 05:37:26;;;;;;;26.33;11.95;;;;;;;8.31;68.31;99878.22;10387113;28;20045;-62
2022/12/25 05:42:28;;;;;;;23.83;10.57;;;;;;;8.36;68.25;99884.06;10387446;28;20053;-62
2022/12/25 05:47:30;;;;;;;25.02;11.35;;;;;;;8.42;68.11;99878.53;10387839;28;20489;-61
2022/12/25 05:52:33;;;;;;;31.35;11.07;;;;;;;8.46;68.15;99869.63;10386159;28;20050;-60
2022/12/25 05:57:34;;;;;;;27.00;12.13;;;;;;;8.49;67.98;99877.25;10386478;28;20524;-62
2022/12/25 06:02:36;;;;;;;28.77;10.05;;;;;;;8.51;67.91;99867.59;10386653;28;20053;-62
2022/12/25 06:07:38;;;;;;;28.33;11.82;;;;;;;8.28;68.37;99858.38;10387891;28;20053;-62
2022/12/25 06:12:40;;;;;;;25.90;10.45;;;;;;;8.23;68.37;99868.19;10384881;28;20069;-62
2022/12/25 06:17:41;;;;;;;32.20;11.52;;;;;;;8.25;68.43;99868.97;10385111;28;20057;-62
2022/12/25 06:22:43;;;;;;;34.15;13.40;;;;;;;8.07;68.64;99862.06;10383729;28;20056;-62
2022/12/25 06:27:45;;;;;;;24.45;11.68;;;;;;;8.10;68.74;99861.91;10385476;28;20061;-62
2022/12/25 06:32:46;;;;;;;27.80;12.07;;;;;;;8.24;68.62;99853.41;10368570;28;20132;-62
2022/12/25 06:37:48;;;;;;;30.00;12.05;;;;;;;8.26;68.49;99847.19;10385311;28;20402;-62
2022/12/25 06:42:51;;;;;;;29.70;11.75;;;;;;;8.35;68.48;99848.47;10384640;28;20607;-62
2022/12/25 06:47:52;;;;;;;29.02;10.57;;;;;;;8.42;68.18;99839.44;10385174;28;20133;-61
2022/12/25 06:52:55;;;;;;;26.63;11.18;;;;;;;8.41;68.11;99832.53;10384727;28;20059;-62
2022/12/25 06:57:56;;;;;;;26.33;10.63;;;;;;;8.36;68.29;99847.56;10387052;28;20053;-62
2022/12/25 07:02:58;;;;;;;24.42;10.10;;;;;;;8.39;68.17;99852.59;10369004;28;20055;-62
2022/12/25 07:08:00;;;;;;;28.23;11.57;;;;;;;8.46;67.98;99836.59;10384321;28;20045;-62
2022/12/25 07:13:02;;;;;;;20.65;8.32;;;;;;;8.46;68.13;99822.72;10383726;28;20072;-62
2022/12/25 07:18:03;;;;;;;21.25;9.07;;;;;;;8.44;68.05;99806.31;10385505;28;20057;-62
2022/12/25 07:23:05;;;;;;;19.42;9.07;;;;;;;8.12;68.93;99828.00;10384495;28;20049;-62
2022/12/25 07:28:07;;;;;;;23.48;11.23;;;;;;;8.22;68.77;99832.63;10383914;28;20524;-62
2022/12/25 07:33:08;;;;;;;32.88;13.07;;;;;;;8.20;68.46;99813.63;10371547;28;20914;-62
2022/12/25 07:38:10;;;;;;;26.25;10.88;;;;;;;8.13;68.66;99807.06;10383365;28;20052;-62
2022/12/25 07:43:12;;;;;;;28.00;11.80;;;;;;;7.92;69.16;99814.19;10382551;28;20045;-62
2022/12/25 07:48:14;;;;;;;28.83;13.93;;;;;;;8.06;69.20;99813.47;10384356;28;20061;-62
2022/12/25 07:53:17;;;;;;;27.40;11.45;;;;;;;8.22;68.78;99775.31;10384041;28;20325;-62
2022/12/25 07:58:19;;;;;;;30.42;13.75;;;;;;;8.26;68.79;99796.88;10382304;28;20069;-62
2022/12/25 08:03:24;;;;;;;22.83;11.25;;;;;;;8.06;69.31;99799.63;10384470;28;20164;-63
2022/12/25 08:08:26;;;;;;;29.40;12.15;;;;;;;8.05;69.23;99801.38;10381594;28;20048;-62
2022/12/25 08:13:31;;;;;;;26.40;11.13;;;;;;;8.08;69.56;99796.00;10380408;28;20413;-62
2022/12/25 08:18:35;;;;;;;26.33;10.88;;;;;;;8.00;69.99;99809.44;10383489;28;20519;-62
2022/12/25 08:23:39;;;;;;;23.67;13.80;;;;;;;8.26;69.68;99817.72;10381673;28;20134;-63
2022/12/25 08:28:40;;;;;;;23.77;12.27;;;;;;;8.48;69.21;99797.41;10383228;28;20148;-63
2022/12/25 08:33:42;;;;;;;21.55;10.48;;;;;;;8.48;69.31;99787.84;10380980;28;20528;-63
2022/12/25 08:38:45;;;;;;;23.10;10.63;;;;;;;8.75;69.14;99765.47;10382367;28;20535;-63
2022/12/25 08:43:46;;;;;;;21.00;10.52;;;;;;;8.78;68.71;99774.91;10381155;28;20292;-63
2022/12/25 08:48:48;;;;;;;24.17;12.63;;;;;;;8.81;68.64;99778.16;10383682;28;20048;-62
2022/12/25 08:53:52;;;;;;;26.45;11.50;;;;;;;8.92;68.50;99784.56;10384724;28;20057;-62
2022/12/25 08:58:53;;;;;;;28.15;13.50;;;;;;;8.94;68.49;99783.56;10390364;28;20147;-62
2022/12/25 09:03:55;;;;;;;23.83;11.88;;;;;;;8.95;68.71;99779.19;10390133;28;20045;-63
2022/12/25 09:08:57;;;;;;;22.73;10.15;;;;;;;8.81;69.03;99772.94;10379976;28;20531;-61
2022/12/25 09:13:59;;;;;;;20.27;9.70;;;;;;;8.79;69.32;99784.41;10386584;28;20038;-61
2022/12/25 09:19:01;;;;;;;18.90;10.45;;;;;;;8.72;69.73;99772.63;10384656;28;20128;-61
2022/12/25 09:24:03;;;;;;;27.10;13.60;;;;;;;8.90;69.42;99786.41;10384325;28;20061;-61
2022/12/25 09:29:05;;;;;;;27.38;15.30;;;;;;;9.00;68.75;99772.78;10387112;28;20258;-61
2022/12/25 09:34:08;;;;;;;22.02;11.18;;;;;;;9.01;68.69;99757.97;10385549;28;20448;-62
2022/12/25 09:39:17;;;;;;;20.53;10.23;;;;;;;9.06;69.05;99756.78;10387514;28;20052;-62
2022/12/25 09:44:24;;;;;;;23.20;11.05;;;;;;;9.22;68.98;99748.94;10382914;28;20140;-62
2022/12/25 09:49:47;;;;;;;17.23;9.25;;;;;;;9.15;69.72;99730.19;10386514;28;20068;-62
2022/12/25 09:55:04;;;;;;;12.63;8.93;;;;;;;9.22;69.96;99707.22;10384491;28;20134;-62
2022/12/25 10:00:15;;;;;;;12.23;8.23;;;;;;;9.34;70.05;99715.13;10386972;28;20053;-63
2022/12/25 10:05:33;;;;;;;12.40;8.07;;;;;;;9.30;69.97;99707.59;10384857;28;20510;-63
2022/12/25 10:10:41;;;;;;;13.80;8.60;;;;;;;9.45;69.83;99709.31;10386232;28;20044;-63
2022/12/25 10:15:53;;;;;;;11.30;8.85;;;;;;;9.70;69.26;99712.19;10382385;28;20049;-63
2022/12/25 10:21:00;;;;;;;13.90;7.55;;;;;;;9.84;68.98;99708.75;10384748;28;20061;-63
2022/12/25 10:26:10;;;;;;;21.73;13.43;;;;;;;9.86;68.89;99717.31;10383075;28;20052;-63
2022/12/25 10:31:20;;;;;;;17.10;11.68;;;;;;;9.87;68.95;99705.97;10385875;28;20045;-64
2022/12/25 10:36:25;;;;;;;13.23;8.63;;;;;;;10.01;68.95;99680.66;10382049;28;20440;-63
2022/12/25 10:41:26;;;;;;;19.98;11.85;;;;;;;10.22;68.45;99684.56;10369813;28;20512;-62
2022/12/25 10:46:28;;;;;;;21.73;14.18;;;;;;;10.38;67.91;99677.44;10381691;28;20061;-62
2022/12/25 10:51:36;;;;;;;23.92;11.88;;;;;;;10.32;68.17;99680.44;10382321;28;20057;-62
2022/12/25 10:56:38;;;;;;;18.05;10.38;;;;;;;10.31;68.30;99689.22;10381868;28;20610;-62
2022/12/25 11:01:39;;;;;;;18.85;10.93;;;;;;;10.39;68.15;99675.66;10384877;28;20072;-62
2022/12/25 11:06:41;;;;;;;23.05;16.10;;;;;;;10.47;68.08;99665.56;10368860;28;20513;-63
2022/12/25 11:11:46;;;;;;;22.23;13.10;;;;;;;10.59;67.84;99654.31;10381137;28;20049;-62
2022/12/25 11:16:49;;;;;;;25.48;14.30;;;;;;;10.56;68.05;99643.22;10379018;28;20045;-62
2022/12/25 11:21:53;;;;;;;26.00;16.63;;;;;;;10.68;67.93;99645.91;10381102;28;20053;-62
2022/12/25 11:27:04;;;;;;;19.42;11.38;;;;;;;10.75;67.72;99634.09;10381842;28;20533;-61
2022/12/25 11:32:19;;;;;;;28.35;16.98;;;;;;;10.83;67.54;99629.19;10383072;28;20060;-62
2022/12/25 11:37:32;;;;;;;23.48;14.50;;;;;;;10.74;67.03;99635.03;10377629;28;20057;-61
2022/12/25 11:42:38;;;;;;;18.08;11.38;;;;;;;10.68;67.36;99583.13;10379118;28;20056;-61
2022/12/25 11:47:53;;;;;;;15.27;11.02;;;;;;;10.47;67.82;99525.22;10372249;28;20050;-61
2022/12/25 11:52:58;;;;;;;16.75;12.07;;;;;;;10.24;68.69;99567.69;10376022;28;20608;-61
2022/12/25 11:58:10;;;;;;;20.05;11.02;;;;;;;10.29;69.09;99559.56;10376756;28;20393;-61
2022/12/25 12:03:34;;;;;;;23.63;13.45;;;;;;;10.56;68.73;99546.47;10379799;28;20381;-61
2022/12/25 12:08:37;;;;;;;21.15;12.65;;;;;;;10.80;68.33;99544.84;10378419;28;20156;-61
2022/12/25 12:14:08;;;;;;;22.98;13.82;;;;;;;11.04;67.74;99543.25;10378746;28;20087;-63
2022/12/25 12:19:22;;;;;;;27.27;14.35;;;;;;;11.12;67.57;99518.22;10380603;28;20044;-62
2022/12/25 12:24:32;;;;;;;17.08;11.98;;;;;;;11.13;67.22;99501.56;10374826;28;20053;-63
2022/12/25 12:29:41;;;;;;;17.50;11.50;;;;;;;11.15;66.80;99509.34;10378976;28;20060;-62
2022/12/25 12:34:50;;;;;;;17.50;11.60;;;;;;;11.10;67.21;99517.50;10386593;28;20500;-63
2022/12/25 12:39:54;;;;;;;16.88;11.55;;;;;;;11.19;67.51;99513.41;10380224;28;20033;-63
2022/12/25 12:45:05;;;;;;;16.23;10.38;;;;;;;11.21;67.21;99530.66;10387516;28;20136;-63
2022/12/25 12:50:25;;;;;;;;;;;;;;;10.79;67.96;99517.00;10387575;28;20407;-63
2022/12/25 12:55:29;;;;;;;14.88;9.90;;;;;;;10.98;67.80;99513.06;10386156;28;20050;-63
2022/12/25 13:00:51;;;;;;;13.02;8.80;;;;;;;11.05;67.52;99503.88;10386525;28;20360;-63
2022/12/25 13:05:59;;;;;;;13.40;8.95;;;;;;;10.85;68.25;99512.22;10382989;28;20051;-62
2022/12/25 13:11:08;;;;;;;12.65;7.57;;;;;;;10.79;68.52;99523.09;10386632;28;20041;-62
2022/12/25 13:16:35;;;;;;;14.80;8.57;;;;;;;10.85;68.68;99509.59;10383148;28;20049;-62
2022/12/25 13:21:37;;;;;;;16.67;10.82;;;;;;;10.91;68.39;99505.75;10385656;28;20045;-62
2022/12/25 13:26:39;;;;;;;19.25;12.52;;;;;;;11.04;68.10;99490.91;10386167;28;20085;-63
2022/12/25 13:31:41;;;;;;;18.80;12.32;;;;;;;10.96;68.18;99495.78;10382682;28;20058;-62
2022/12/25 13:36:45;;;;;;;17.65;12.38;;;;;;;10.96;68.12;99485.31;10383106;28;20077;-62
2022/12/25 13:42:05;;;;;;;12.35;7.78;;;;;;;11.05;68.02;99482.13;10387193;28;20060;-63
2022/12/25 13:47:19;;;;;;;7.05;4.85;;;;;;;11.03;67.84;99483.97;10383380;28;20042;-62
2022/12/25 13:52:27;;;;;;;9.20;4.95;;;;;;;11.04;67.82;99485.66;10382536;28;20357;-62
2022/12/25 13:57:35;;;;;;;7.32;4.05;;;;;;;11.05;67.61;99472.47;10380742;28;20061;-62
2022/12/25 14:02:38;;;;;;;7.55;3.70;;;;;;;11.15;67.40;99451.75;10384471;28;20057;-62
2022/12/25 14:07:41;;;;;;;7.70;3.70;;;;;;;11.15;67.19;99483.97;10382513;28;20500;-63
2022/12/25 14:12:43;;;;;;;6.43;3.75;;;;;;;11.17;67.28;99481.28;10385491;28;20639;-62
2022/12/25 14:17:46;;;;;;;7.55;4.38;;;;;;;11.07;67.32;99473.19;10381926;28;20471;-63
2022/12/25 14:22:51;;;;;;;9.02;4.82;;;;;;;10.90;67.69;99478.75;10384146;28;20126;-61
2022/12/25 14:27:53;;;;;;;8.30;4.80;;;;;;;10.86;67.43;99479.88;10383017;28;20047;-62
2022/12/25 14:32:56;;;;;;;5.35;3.70;;;;;;;10.91;67.19;99485.63;10381284;28;20053;-62
2022/12/25 14:37:59;;;;;;;5.75;3.80;;;;;;;10.98;66.99;99486.06;10374144;28;20063;-62
2022/12/25 14:43:03;;;;;;;6.32;3.63;;;;;;;10.90;66.99;99478.75;10385203;28;20089;-62
2022/12/25 14:48:19;;;;;;;6.70;3.85;;;;;;;10.85;67.42;99488.66;10387736;28;20045;-62
2022/12/25 14:53:59;;;;;;;7.95;3.83;;;;;;;10.83;67.30;99487.94;10385695;28;20065;-62
2022/12/25 14:59:01;;;;;;;7.82;3.92;;;;;;;10.88;67.40;99488.47;10385016;28;20052;-62
2022/12/25 15:04:05;;;;;;;5.93;3.42;;;;;;;10.66;68.14;99490.88;10387065;28;20053;-62
2022/12/25 15:09:15;;;;;;;8.57;5.35;;;;;;;10.73;67.80;99486.03;10384419;28;20057;-62
2022/12/25 15:14:17;;;;;;;9.43;5.25;;;;;;;10.67;67.95;99502.13;10384634;28;20910;-62
2022/12/25 15:19:24;;;;;;;8.57;5.97;;;;;;;10.70;67.76;99496.72;10383226;28;20448;-62
2022/12/25 15:24:35;;;;;;;9.63;5.40;;;;;;;10.59;68.03;99507.88;10380751;28;20505;-62
2022/12/25 15:29:37;;;;;;;8.50;4.80;;;;;;;10.56;68.09;99513.34;10378594;28;20075;-62
2022/12/25 15:34:58;;;;;;;8.98;5.57;;;;;;;10.55;68.30;99514.25;10378773;28;20506;-62
2022/12/25 15:40:00;;;;;;;9.20;6.03;;;;;;;10.44;68.63;99514.97;10385511;28;20347;-62
2022/12/25 15:45:03;;;;;;;10.68;6.65;;;;;;;10.44;68.37;99507.13;10376722;28;20053;-62
2022/12/25 15:50:05;;;;;;;9.65;6.78;;;;;;;10.49;68.32;99493.75;10384321;28;20057;-63
2022/12/25 15:55:08;;;;;;;7.55;4.95;;;;;;;10.41;68.03;99488.19;10383486;28;20049;-63
2022/12/25 16:00:18;;;;;;;8.82;6.47;;;;;;;10.34;68.03;99481.69;10383275;28;20426;-63
2022/12/25 16:05:20;;;;;;;7.95;5.38;;;;;;;10.18;68.37;99478.41;10387971;28;20041;-63
2022/12/25 16:10:22;;;;;;;11.65;5.40;;;;;;;10.16;68.53;99475.03;10397134;28;20068;-63
2022/12/25 16:15:24;;;;;;;9.30;4.68;;;;;;;10.14;68.80;99474.31;10396818;28;20050;-63
2022/12/25 16:20:25;;;;;;;8.63;4.82;;;;;;;10.15;68.41;99470.78;10396926;28;20049;-63
2022/12/25 16:25:27;;;;;;;8.93;5.20;;;;;;;10.19;68.54;99469.63;10396309;28;20050;-63
2022/12/25 16:30:29;;;;;;;9.43;5.78;;;;;;;10.16;68.59;99486.34;10396015;28;20049;-62
2022/12/25 16:35:31;;;;;;;9.77;6.47;;;;;;;10.16;68.52;99495.94;10396130;28;20072;-63
2022/12/25 16:40:33;;;;;;;15.20;9.27;;;;;;;10.12;68.46;99500.53;10396397;28;20516;-63
2022/12/25 16:45:39;;;;;;;13.20;8.93;;;;;;;10.02;68.67;99490.78;10397371;28;21152;-63
2022/12/25 16:50:41;;;;;;;14.60;8.65;;;;;;;10.02;68.63;99481.19;10397053;28;20045;-63
2022/12/25 16:55:43;;;;;;;12.02;6.78;;;;;;;10.04;68.92;99462.78;10387449;28;20041;-64
2022/12/25 17:00:44;;;;;;;13.93;8.00;;;;;;;10.04;68.91;99466.25;10393230;28;20053;-63
2022/12/25 17:05:50;;;;;;;12.75;8.20;;;;;;;9.90;69.12;99452.38;10387608;28;20136;-64
2022/12/25 17:10:51;;;;;;;14.95;8.63;;;;;;;9.78;69.23;99455.78;10393667;28;20053;-63
2022/12/25 17:15:53;;;;;;;11.57;7.38;;;;;;;9.83;69.64;99451.94;10391704;28;20037;-63
2022/12/25 17:20:55;;;;;;;13.32;9.00;;;;;;;9.73;69.92;99465.72;10381892;28;20053;-63
2022/12/25 17:26:00;;;;;;;14.68;9.63;;;;;;;9.65;70.13;99479.19;10385200;28;20046;-63
2022/12/25 17:31:03;;;;;;;12.05;9.30;;;;;;;9.62;70.16;99485.47;10385489;28;20133;-64
2022/12/25 17:36:09;;;;;;;14.40;9.30;;;;;;;9.80;70.05;99487.88;10384976;28;20049;-64
2022/12/25 17:41:13;;;;;;;12.68;9.73;;;;;;;9.92;69.56;99490.53;10385956;28;20134;-63
2022/12/25 17:46:26;;;;;;;15.60;10.43;;;;;;;9.89;69.33;99472.44;10385736;28;20183;-64
2022/12/25 17:51:30;;;;;;;11.80;8.70;;;;;;;9.97;69.34;99462.34;10384106;28;20049;-64
2022/12/25 17:56:32;;;;;;;11.40;7.35;;;;;;;9.98;69.44;99455.34;10384642;28;20100;-64
2022/12/25 18:01:37;;;;;;;10.63;8.00;;;;;;;10.07;69.28;99452.16;10383652;28;20377;-64
2022/12/25 18:06:39;;;;;;;10.10;7.15;;;;;;;10.05;69.36;99446.19;10381692;28;20050;-63
2022/12/25 18:11:42;;;;;;;10.05;7.43;;;;;;;10.01;69.35;99450.75;10380994;28;20053;-64
2022/12/25 18:16:45;;;;;;;11.07;5.70;;;;;;;10.11;69.34;99441.41;10385746;28;20075;-64
2022/12/25 18:21:48;;;;;;;11.20;4.97;;;;;;;10.30;69.04;99457.53;10383249;28;20052;-63
2022/12/25 18:26:50;;;;;;;7.45;4.70;;;;;;;10.47;68.73;99465.09;10380673;28;20055;-62
2022/12/25 18:31:53;;;;;;;7.72;4.30;;;;;;;10.59;68.30;99463.44;10380539;28;20060;-62
2022/12/25 18:37:01;;;;;;;7.25;3.80;;;;;;;10.71;68.08;99460.00;10385657;28;20053;-62
2022/12/25 18:47:24;;;;;;;9.00;4.03;;;;;;;10.86;67.53;99472.03;10383732;28;20049;-62
2022/12/25 18:52:26;;;;;;;9.20;3.65;;;;;;;10.88;67.39;99461.47;10381522;28;20051;-63
2022/12/25 18:57:48;;;;;;;11.38;3.88;;;;;;;10.96;67.13;99467.84;10370616;28;20555;-63
2022/12/25 19:02:55;;;;;;;8.85;3.70;;;;;;;10.99;66.69;99462.41;10380228;28;20421;-63
2022/12/25 19:07:58;;;;;;;7.43;3.80;;;;;;;11.01;66.84;99460.50;10382658;28;20274;-63
2022/12/25 19:13:00;;;;;;;7.10;3.53;;;;;;;11.06;66.56;99440.16;10379688;28;20076;-63
2022/12/25 19:18:02;;;;;;;5.82;3.50;;;;;;;10.95;66.47;99407.78;10382208;28;20053;-62
2022/12/25 19:23:03;;;;;;;6.18;3.50;;;;;;;10.87;66.52;99433.63;10380865;28;20044;-63
2022/12/25 19:28:05;;;;;;;8.10;4.38;;;;;;;10.96;66.23;99439.06;10383057;28;20400;-63
2022/12/25 19:33:07;;;;;;;6.10;3.60;;;;;;;11.01;66.22;99438.75;10380874;28;20136;-62
2022/12/25 19:38:18;;;;;;;6.65;3.35;;;;;;;11.02;66.05;99438.66;10377289;28;20045;-62
2022/12/25 19:43:20;;;;;;;6.55;3.50;;;;;;;11.00;66.02;99435.31;10376267;28;20515;-62
2022/12/25 19:48:22;;;;;;;5.53;3.47;;;;;;;10.93;66.02;99452.34;10381611;28;20053;-62
2022/12/25 19:53:25;;;;;;;6.25;3.78;;;;;;;10.95;65.91;99447.84;10378929;28;20061;-62
2022/12/25 19:58:27;;;;;;;6.80;3.83;;;;;;;11.01;65.85;99442.19;10378826;28;20514;-62
2022/12/25 20:03:28;;;;;;;8.00;3.50;;;;;;;11.06;65.44;99449.75;10379557;28;20055;-62
2022/12/25 20:08:31;;;;;;;5.90;3.33;;;;;;;11.05;65.69;99451.53;10380696;28;20048;-62
2022/12/25 20:13:32;;;;;;;7.45;3.28;;;;;;;11.04;65.48;99449.88;10380251;28;20054;-63
2022/12/25 20:18:35;;;;;;;5.38;3.42;;;;;;;11.10;65.53;99459.06;10382647;28;20067;-62
2022/12/25 20:23:37;;;;;;;5.20;3.45;;;;;;;11.08;65.53;99443.50;10380221;28;20060;-63
2022/12/25 20:28:40;;;;;;;5.60;3.45;;;;;;;11.03;65.85;99442.91;10382619;28;20444;-63
2022/12/25 20:33:42;;;;;;;5.32;3.30;;;;;;;10.93;65.92;99439.28;10380131;28;20060;-63
2022/12/25 20:38:44;;;;;;;7.40;4.35;;;;;;;10.89;66.03;99443.03;10381234;28;20509;-63
2022/12/25 20:43:48;;;;;;;7.13;3.72;;;;;;;10.84;65.96;99453.00;10371278;28;20401;-63
2022/12/25 20:49:01;;;;;;;5.75;3.50;;;;;;;10.83;65.93;99414.69;10381199;28;20053;-63
2022/12/25 20:54:09;;;;;;;7.97;3.88;;;;;;;10.79;66.06;99430.69;10384138;28;20741;-64
2022/12/25 20:59:13;;;;;;;6.43;3.95;;;;;;;10.74;66.13;99441.50;10386830;28;20453;-63
2022/12/25 21:04:18;;;;;;;5.70;3.58;;;;;;;10.73;66.12;99460.72;10387991;28;20124;-63
2022/12/25 21:09:21;;;;;;;6.07;3.60;;;;;;;10.79;66.05;99462.91;10385763;28;20049;-63
2022/12/25 21:14:24;;;;;;;8.52;4.00;;;;;;;10.90;65.66;99465.66;10385224;28;20068;-63
2022/12/25 21:19:27;;;;;;;6.13;3.75;;;;;;;10.91;65.56;99459.47;10389532;28;20045;-63
2022/12/25 21:24:28;;;;;;;6.78;4.00;;;;;;;10.94;65.51;99464.50;10377442;28;20057;-64
2022/12/25 21:29:30;;;;;;;6.07;3.72;;;;;;;11.00;65.21;99458.84;10387098;28;20068;-63
2022/12/25 21:34:32;;;;;;;6.20;4.07;;;;;;;10.96;65.46;99473.09;10367451;28;20057;-60
2022/12/25 21:39:33;;;;;;;7.25;4.05;;;;;;;10.90;65.27;99467.44;10387227;28;20057;-61
2022/12/25 21:44:35;;;;;;;5.97;3.88;;;;;;;10.83;65.54;99480.09;10383463;28;20057;-61
2022/12/25 21:54:57;;;;;;;7.13;4.25;;;;;;;10.80;65.48;99479.47;10384410;28;20045;-62
2022/12/25 21:59:59;;;;;;;5.93;4.07;;;;;;;10.83;65.42;99477.47;10385677;28;20076;-62
2022/12/25 22:05:01;;;;;;;8.35;4.43;;;;;;;10.92;65.28;99491.72;10386052;28;20454;-62
2022/12/25 22:10:03;;;;;;;6.32;3.88;;;;;;;10.88;65.07;99490.25;10386951;28;20060;-62
2022/12/25 22:15:08;;;;;;;6.43;3.72;;;;;;;10.89;65.17;99490.13;10385193;28;20068;-62
2022/12/25 22:20:13;;;;;;;5.78;3.42;;;;;;;10.95;64.91;99471.41;10386329;28;20041;-62
2022/12/25 22:25:16;;;;;;;5.13;2.80;;;;;;;10.99;64.88;99466.81;10375005;28;20129;-62
2022/12/25 22:30:24;;;;;;;5.28;2.95;;;;;;;10.95;64.38;99470.59;10385863;28;20351;-62
2022/12/25 22:35:26;;;;;;;5.30;2.83;;;;;;;10.88;64.53;99480.63;10386231;28;20312;-62
2022/12/25 22:40:28;;;;;;;5.38;3.00;;;;;;;10.90;64.57;99504.91;10387479;28;20045;-63
2022/12/25 22:45:29;;;;;;;6.88;3.22;;;;;;;10.94;64.22;99495.91;10384285;28;20057;-62
2022/12/25 22:50:31;;;;;;;5.32;3.00;;;;;;;11.03;63.82;99502.28;10384875;28;20207;-62
2022/12/25 22:55:32;;;;;;;5.57;2.75;;;;;;;10.99;64.11;99512.09;10385976;28;20612;-63
2022/12/25 23:00:34;;;;;;;5.00;2.72;;;;;;;10.97;64.08;99506.16;10383686;28;20076;-63
2022/12/25 23:05:52;;;;;;;6.03;2.58;;;;;;;10.91;64.29;99505.75;10385537;28;20244;-62
2022/12/25 23:10:59;;;;;;;5.07;2.80;;;;;;;11.07;64.12;99504.59;10383823;28;20313;-62
2022/12/25 23:16:01;;;;;;;5.93;2.67;;;;;;;11.08;64.08;99497.59;10384646;28;20041;-62
2022/12/25 23:26:23;;;;;;;6.77;2.70;;;;;;;11.14;63.84;99503.25;10383481;28;20390;-62
2022/12/25 23:31:35;;;;;;;4.85;2.95;;;;;;;11.16;64.03;99508.38;10384609;28;20478;-63
2022/12/25 23:36:37;;;;;;;4.07;2.45;;;;;;;11.25;63.65;99510.38;10385208;28;20073;-62
2022/12/25 23:41:40;;;;;;;5.65;2.50;;;;;;;11.18;63.85;99523.03;10380621;28;20470;-63
2022/12/25 23:46:43;;;;;;;5.03;2.33;;;;;;;11.18;63.89;99515.19;10384148;28;20085;-63
2022/12/25 23:51:54;;;;;;;4.63;2.55;;;;;;;11.20;63.77;99513.31;10384500;28;20060;-62
2022/12/25 23:56:57;;;;;;;5.53;2.95;;;;;;;11.12;63.90;99515.63;10383809;28;20045;-63
